Time;durP1;ratioP1;P1;durP2;ratioP2;P2;SDS_P1;SDS_P2;PMS_P1;PMS_P2;Temp;Humidity;BMP_temperature;BMP_pressure;BME280_temperature;BME280_humidity;BME280_pressure;Samples;Min_cycle;Max_cycle;Signal;HPM_P1;HPM_P2
2024/01/31 00:01:37;;;;;;;11.65;1.98;;;;;;;-144.74;100.00;63161.41;5016023;28;20029;-73
2024/01/31 00:04:05;;;;;;;11.40;2.30;;;;;;;-144.74;100.00;63161.41;5016661;28;20406;-74
2024/01/31 00:06:31;;;;;;;15.85;2.22;;;;;;;-144.74;100.00;63161.41;5015727;28;20033;-74
2024/01/31 00:09:00;;;;;;;12.48;2.20;;;;;;;-144.74;100.00;63161.41;5016271;28;20064;-73
2024/01/31 00:11:28;;;;;;;7.20;1.83;;;;;;;-144.74;100.00;63161.41;5018590;28;20034;-74
2024/01/31 00:13:54;;;;;;;19.40;2.58;;;;;;;-144.74;100.00;63161.41;5033063;28;20071;-74
2024/01/31 00:16:20;;;;;;;14.55;2.50;;;;;;;-144.74;100.00;63161.41;5017572;28;20561;-74
2024/01/31 00:18:45;;;;;;;15.73;3.05;;;;;;;-144.74;100.00;63161.41;5015660;28;20022;-74
2024/01/31 00:21:11;;;;;;;17.45;2.92;;;;;;;-144.74;100.00;63161.41;5001879;28;20076;-73
2024/01/31 00:23:39;;;;;;;22.92;3.70;;;;;;;-144.74;100.00;63161.41;5013359;28;20021;-74
2024/01/31 00:26:05;;;;;;;13.18;3.28;;;;;;;-144.74;100.00;63161.41;5011411;28;20037;-74
2024/01/31 00:28:30;;;;;;;17.13;3.25;;;;;;;-144.74;100.00;63161.41;5015997;28;20021;-74
2024/01/31 00:30:56;;;;;;;18.15;2.13;;;;;;;-144.74;100.00;63161.41;5015326;28;20033;-74
2024/01/31 00:33:21;;;;;;;19.38;3.47;;;;;;;-144.74;100.00;63161.41;5015096;28;20051;-73
2024/01/31 00:35:46;;;;;;;16.42;3.45;;;;;;;-144.74;100.00;63161.41;5015387;28;20121;-74
2024/01/31 00:38:12;;;;;;;19.58;2.38;;;;;;;-144.74;100.00;63161.41;5014713;28;20100;-73
2024/01/31 00:40:43;;;;;;;13.35;2.10;;;;;;;-144.74;100.00;63161.41;5015424;28;20049;-74
2024/01/31 00:43:12;;;;;;;19.02;3.95;;;;;;;-144.74;100.00;63161.41;5009142;28;20021;-74
2024/01/31 00:45:37;;;;;;;16.55;2.85;;;;;;;-144.74;100.00;63161.41;5014821;28;20037;-75
2024/01/31 00:48:05;;;;;;;14.60;2.42;;;;;;;-144.74;100.00;63161.41;5014815;28;20022;-74
2024/01/31 00:50:31;;;;;;;27.42;4.10;;;;;;;-144.74;100.00;63161.41;5032038;28;20032;-74
2024/01/31 00:52:56;;;;;;;29.95;3.83;;;;;;;-144.74;100.00;63161.41;5014612;28;20033;-74
2024/01/31 00:55:21;;;;;;;22.83;3.22;;;;;;;-144.74;100.00;63161.41;5018126;28;20037;-75
2024/01/31 00:57:47;;;;;;;32.33;4.95;;;;;;;-144.74;100.00;63161.41;5013385;28;20054;-75
2024/01/31 01:00:14;;;;;;;25.63;4.20;;;;;;;-144.74;100.00;63161.41;5013352;28;20061;-74
2024/01/31 01:02:40;;;;;;;29.10;4.03;;;;;;;-144.74;100.00;63161.41;5007233;28;20033;-74
2024/01/31 01:05:09;;;;;;;21.25;3.65;;;;;;;-144.74;100.00;63161.41;5013627;28;20076;-74
2024/01/31 01:07:41;;;;;;;27.73;4.07;;;;;;;-144.74;100.00;63161.41;5012482;28;20567;-74
2024/01/31 01:10:12;;;;;;;38.95;4.78;;;;;;;-144.74;100.00;63161.41;5011884;28;20037;-74
2024/01/31 01:12:38;;;;;;;30.25;4.32;;;;;;;-144.74;100.00;63161.41;5014254;28;20025;-74
2024/01/31 01:15:04;;;;;;;31.40;5.90;;;;;;;-144.74;100.00;63161.41;5027329;28;20079;-74
2024/01/31 01:17:29;;;;;;;25.95;5.10;;;;;;;-144.74;100.00;63161.41;5013539;28;20033;-74
2024/01/31 01:19:54;;;;;;;22.58;4.70;;;;;;;-144.74;100.00;63161.41;5013615;28;20108;-74
2024/01/31 01:22:20;;;;;;;25.65;5.15;;;;;;;-144.74;100.00;63161.41;5004066;28;20113;-75
2024/01/31 01:24:45;;;;;;;29.17;5.45;;;;;;;-144.74;100.00;63161.41;5008123;28;20093;-74
2024/01/31 01:27:10;;;;;;;25.45;4.57;;;;;;;-144.74;100.00;63161.41;5013798;28;20037;-73
2024/01/31 01:29:36;;;;;;;26.08;4.82;;;;;;;-144.74;100.00;63161.41;5012930;28;20026;-73
2024/01/31 01:32:04;;;;;;;28.08;4.78;;;;;;;-144.74;100.00;63161.41;5018396;28;20021;-73
2024/01/31 01:34:29;;;;;;;18.83;3.95;;;;;;;-144.74;100.00;63161.41;5019806;28;20037;-73
2024/01/31 01:36:55;;;;;;;18.25;3.33;;;;;;;-144.74;100.00;63161.41;5013994;28;20045;-73
2024/01/31 01:39:20;;;;;;;20.25;2.83;;;;;;;-144.74;100.00;63161.41;5013682;28;20030;-73
2024/01/31 01:41:49;;;;;;;20.08;3.80;;;;;;;-144.74;100.00;63161.41;5030936;28;20029;-74
2024/01/31 01:44:15;;;;;;;19.70;2.13;;;;;;;-144.74;100.00;63161.41;5013206;28;20022;-72
2024/01/31 01:46:42;;;;;;;14.05;2.17;;;;;;;-144.74;100.00;63161.41;5013510;28;20032;-72
2024/01/31 01:49:08;;;;;;;15.35;2.10;;;;;;;-144.74;100.00;63161.41;5014041;28;20071;-72
2024/01/31 01:51:33;;;;;;;12.50;1.67;;;;;;;-144.74;100.00;63161.41;5013023;28;20042;-73
2024/01/31 01:53:59;;;;;;;8.02;1.70;;;;;;;-144.74;100.00;63161.41;5031058;28;20067;-72
2024/01/31 01:56:25;;;;;;;13.65;1.55;;;;;;;-144.74;100.00;63161.41;5019065;28;20033;-72
2024/01/31 01:58:52;;;;;;;14.90;2.13;;;;;;;-144.74;100.00;63161.41;5015251;28;20022;-73
2024/01/31 02:01:18;;;;;;;19.83;2.60;;;;;;;-144.74;100.00;63161.41;5014919;28;20496;-71
2024/01/31 02:03:44;;;;;;;6.90;1.58;;;;;;;-144.74;100.00;63161.41;5031081;28;20112;-72
2024/01/31 02:06:10;;;;;;;12.35;1.20;;;;;;;-144.74;100.00;63161.41;5016880;28;20044;-72
2024/01/31 02:08:35;;;;;;;5.03;1.48;;;;;;;-144.74;100.00;63161.41;5014952;28;20112;-74
2024/01/31 02:11:01;;;;;;;8.93;2.50;;;;;;;-144.74;100.00;63161.41;5014400;28;20030;-73
2024/01/31 02:13:28;;;;;;;12.32;2.13;;;;;;;-144.74;100.00;63161.41;5012736;28;20025;-73
2024/01/31 02:15:57;;;;;;;16.42;2.03;;;;;;;-144.74;100.00;63161.41;5030751;28;20384;-73
2024/01/31 02:18:27;;;;;;;4.65;1.02;;;;;;;-144.74;100.00;63161.41;5013644;28;20064;-73
2024/01/31 02:20:53;;;;;;;9.68;1.67;;;;;;;-144.74;100.00;63161.41;5012347;28;20026;-73
2024/01/31 02:23:18;;;;;;;14.55;1.77;;;;;;;-144.74;100.00;63161.41;5012731;28;20028;-73
2024/01/31 02:25:48;;;;;;;10.13;1.48;;;;;;;-144.74;100.00;63161.41;5003895;28;20038;-73
2024/01/31 02:28:14;;;;;;;9.00;1.58;;;;;;;-144.74;100.00;63161.41;5005839;28;20018;-73
2024/01/31 02:30:39;;;;;;;14.85;1.70;;;;;;;-144.74;100.00;63161.41;5013080;28;20034;-73
2024/01/31 02:33:05;;;;;;;11.82;1.60;;;;;;;-144.74;100.00;63161.41;5016367;28;20028;-73
2024/01/31 02:35:32;;;;;;;8.77;2.10;;;;;;;-144.74;100.00;63161.41;5002490;28;20045;-73
2024/01/31 02:37:58;;;;;;;12.23;1.70;;;;;;;-144.74;100.00;63161.41;5017378;28;20427;-73
2024/01/31 02:40:23;;;;;;;13.48;1.55;;;;;;;-144.74;100.00;63161.41;5017989;28;20065;-73
2024/01/31 02:42:49;;;;;;;17.58;2.47;;;;;;;-144.74;100.00;63161.41;5020351;28;20025;-73
2024/01/31 02:45:14;;;;;;;12.40;2.50;;;;;;;-144.74;100.00;63161.41;5014579;28;20116;-73
2024/01/31 02:47:40;;;;;;;7.13;1.17;;;;;;;-144.74;100.00;63161.41;5018851;28;20049;-73
2024/01/31 02:50:05;;;;;;;22.40;2.05;;;;;;;-144.74;100.00;63161.41;5016328;28;20416;-73
2024/01/31 02:52:31;;;;;;;13.25;2.08;;;;;;;-144.74;100.00;63161.41;5016946;28;20021;-73
2024/01/31 02:54:58;;;;;;;10.00;1.50;;;;;;;-144.74;100.00;63161.41;5016403;28;20103;-73
2024/01/31 02:57:24;;;;;;;18.05;3.25;;;;;;;-144.74;100.00;63161.41;5016888;28;20043;-73
2024/01/31 02:59:50;;;;;;;9.80;1.95;;;;;;;-144.74;100.00;63161.41;5017735;28;20433;-73
2024/01/31 03:02:16;;;;;;;8.68;1.90;;;;;;;-144.74;100.00;63161.41;5016640;28;20070;-73
2024/01/31 03:04:41;;;;;;;9.63;1.63;;;;;;;-144.74;100.00;63161.41;5016382;28;20052;-73
2024/01/31 03:07:06;;;;;;;8.68;1.95;;;;;;;-144.74;100.00;63161.41;5034350;28;20053;-73
2024/01/31 03:09:32;;;;;;;13.32;1.80;;;;;;;-144.74;100.00;63161.41;5013577;28;20030;-73
2024/01/31 03:11:57;;;;;;;18.17;2.85;;;;;;;-144.74;100.00;63161.41;4997257;28;20113;-73
2024/01/31 03:14:23;;;;;;;14.32;3.00;;;;;;;-144.74;100.00;63161.41;5006759;28;20025;-73
2024/01/31 03:16:48;;;;;;;20.55;2.38;;;;;;;-144.74;100.00;63161.41;5021005;28;20057;-73
2024/01/31 03:19:15;;;;;;;14.55;1.70;;;;;;;-144.74;100.00;63161.41;5018243;28;20025;-73
2024/01/31 03:21:41;;;;;;;23.08;2.58;;;;;;;-144.74;100.00;63161.41;5020737;28;20116;-72
2024/01/31 03:24:06;;;;;;;14.88;1.85;;;;;;;-144.74;100.00;63161.41;5034064;28;20112;-73
2024/01/31 03:26:31;;;;;;;26.30;3.35;;;;;;;-144.74;100.00;63161.41;5018741;28;20128;-73
2024/01/31 03:29:01;;;;;;;20.25;2.60;;;;;;;-144.74;100.00;63161.41;5016417;28;20018;-73
2024/01/31 03:31:28;;;;;;;22.00;2.72;;;;;;;-144.74;100.00;63161.41;5031597;28;20033;-72
2024/01/31 03:33:53;;;;;;;22.48;2.75;;;;;;;-144.74;100.00;63161.41;5016887;28;20120;-72
2024/01/31 03:36:18;;;;;;;21.35;2.70;;;;;;;-144.74;100.00;63161.41;5016090;28;20121;-72
2024/01/31 03:38:44;;;;;;;18.00;2.65;;;;;;;-144.74;100.00;63161.41;5015964;28;20030;-72
2024/01/31 03:41:10;;;;;;;21.30;3.38;;;;;;;-144.74;100.00;63161.41;5016405;28;20045;-73
2024/01/31 03:43:35;;;;;;;16.67;3.10;;;;;;;-144.74;100.00;63161.41;5020007;28;20025;-72
2024/01/31 03:46:04;;;;;;;19.88;2.63;;;;;;;-144.74;100.00;63161.41;5015864;28;20108;-73
2024/01/31 03:48:30;;;;;;;21.50;3.08;;;;;;;-144.74;100.00;63161.41;5016173;28;20028;-72
2024/01/31 03:50:58;;;;;;;21.20;2.58;;;;;;;-144.74;100.00;63161.41;5031908;28;20041;-72
2024/01/31 03:53:23;;;;;;;27.10;3.92;;;;;;;-144.74;100.00;63161.41;5033372;28;20021;-73
2024/01/31 03:55:49;;;;;;;16.92;2.58;;;;;;;-144.74;100.00;63161.41;5015515;28;20086;-72
2024/01/31 03:58:14;;;;;;;24.33;3.00;;;;;;;-144.74;100.00;63161.41;5018011;28;20022;-72
2024/01/31 04:00:39;;;;;;;28.08;3.40;;;;;;;-144.74;100.00;63161.41;5016340;28;20033;-72
2024/01/31 04:03:05;;;;;;;25.40;2.70;;;;;;;-144.74;100.00;63161.41;5008840;28;20038;-72
2024/01/31 04:05:31;;;;;;;35.15;3.80;;;;;;;-144.74;100.00;63161.41;5007728;28;20041;-72
2024/01/31 04:07:57;;;;;;;34.55;3.72;;;;;;;-144.74;100.00;63161.41;5022568;28;20053;-72
2024/01/31 04:10:22;;;;;;;20.63;3.30;;;;;;;-144.74;100.00;63161.41;5011164;28;20045;-72
2024/01/31 04:12:48;;;;;;;21.42;2.83;;;;;;;-144.74;100.00;63161.41;5017862;28;20025;-72
2024/01/31 04:15:14;;;;;;;17.92;2.80;;;;;;;-144.74;100.00;63161.41;5015116;28;20077;-72
2024/01/31 04:17:39;;;;;;;14.27;2.80;;;;;;;-144.74;100.00;63161.41;5019853;28;20032;-73
2024/01/31 04:20:06;;;;;;;15.95;2.70;;;;;;;-144.74;100.00;63161.41;5010820;28;20034;-73
2024/01/31 04:22:32;;;;;;;25.40;2.88;;;;;;;-144.74;100.00;63161.41;5019361;28;20026;-73
2024/01/31 04:25:00;;;;;;;24.55;2.85;;;;;;;-144.74;100.00;63161.41;5013384;28;20029;-73
2024/01/31 04:27:26;;;;;;;22.83;3.35;;;;;;;-144.74;100.00;63161.41;5015087;28;20479;-72
2024/01/31 04:30:01;;;;;;;17.95;2.88;;;;;;;-144.74;100.00;63161.41;5017382;28;20030;-73
2024/01/31 04:32:26;;;;;;;34.15;3.40;;;;;;;-144.74;100.00;63161.41;5014933;28;20082;-73
2024/01/31 04:34:52;;;;;;;25.85;3.13;;;;;;;-144.74;100.00;63161.41;5021279;28;20124;-73
2024/01/31 04:37:17;;;;;;;25.27;2.97;;;;;;;-144.74;100.00;63161.41;5032715;28;20034;-73
2024/01/31 04:39:43;;;;;;;31.33;3.40;;;;;;;-144.74;100.00;63161.41;5010498;28;20042;-73
2024/01/31 04:42:09;;;;;;;25.48;3.10;;;;;;;-144.74;100.00;63161.41;5003453;28;20029;-73
2024/01/31 04:44:35;;;;;;;30.45;3.22;;;;;;;-144.74;100.00;63161.41;5002363;28;20112;-72
2024/01/31 04:47:01;;;;;;;17.40;2.60;;;;;;;-144.74;100.00;63161.41;5015506;28;20029;-73
2024/01/31 04:49:27;;;;;;;28.15;3.05;;;;;;;-144.74;100.00;63161.41;5017323;28;20503;-73
2024/01/31 04:51:53;;;;;;;20.73;3.10;;;;;;;-144.74;100.00;63161.41;5022041;28;20025;-73
2024/01/31 04:54:19;;;;;;;23.83;3.33;;;;;;;-144.74;100.00;63161.41;5019567;28;20095;-73
2024/01/31 04:56:44;;;;;;;26.60;3.10;;;;;;;-144.74;100.00;63161.41;5015016;28;20017;-73
2024/01/31 04:59:10;;;;;;;20.00;3.17;;;;;;;-144.74;100.00;63161.41;5006949;28;20022;-73
2024/01/31 05:01:35;;;;;;;23.98;3.00;;;;;;;-144.74;100.00;63161.41;5032381;28;20057;-73
2024/01/31 05:04:01;;;;;;;22.30;3.05;;;;;;;-144.74;100.00;63161.41;5014784;28;20120;-74
2024/01/31 05:06:26;;;;;;;22.77;2.90;;;;;;;-144.74;100.00;63161.41;5014305;28;20033;-73
2024/01/31 05:08:51;;;;;;;31.60;3.33;;;;;;;-144.74;100.00;63161.41;5014637;28;20071;-73
2024/01/31 05:11:17;;;;;;;22.08;2.92;;;;;;;-144.74;100.00;63161.41;5014369;28;20048;-73
2024/01/31 05:13:43;;;;;;;29.58;3.85;;;;;;;-144.74;100.00;63161.41;5018349;28;20025;-73
2024/01/31 05:16:11;;;;;;;13.52;2.55;;;;;;;-144.74;100.00;63161.41;5014141;28;20048;-74
2024/01/31 05:18:37;;;;;;;24.52;2.60;;;;;;;-144.74;100.00;63161.41;5014627;28;20057;-74
2024/01/31 05:21:03;;;;;;;25.23;3.83;;;;;;;-144.74;100.00;63161.41;5014097;28;20057;-73
2024/01/31 05:23:28;;;;;;;22.15;2.92;;;;;;;-144.74;100.00;63161.41;5014165;28;20104;-74
2024/01/31 05:25:54;;;;;;;21.83;2.92;;;;;;;-144.74;100.00;63161.41;5020799;28;20578;-73
2024/01/31 05:28:20;;;;;;;20.80;2.70;;;;;;;-144.74;100.00;63161.41;5026658;28;20044;-73
2024/01/31 05:30:46;;;;;;;19.88;3.38;;;;;;;-144.74;100.00;63161.41;5018170;28;20087;-73
2024/01/31 05:33:12;;;;;;;23.02;2.58;;;;;;;-144.74;100.00;63161.41;5031698;28;20049;-73
2024/01/31 05:35:37;;;;;;;16.92;2.45;;;;;;;-144.74;100.00;63161.41;5022548;28;20072;-74
2024/01/31 05:38:04;;;;;;;23.73;3.83;;;;;;;-144.74;100.00;63161.41;5031475;28;20028;-73
2024/01/31 05:40:30;;;;;;;25.83;3.35;;;;;;;-144.74;100.00;63161.41;5013765;28;20033;-73
2024/01/31 05:42:56;;;;;;;24.10;2.92;;;;;;;-144.74;100.00;63161.41;5014431;28;20021;-74
2024/01/31 05:45:22;;;;;;;19.10;2.53;;;;;;;-144.74;100.00;63161.41;5015921;28;20490;-73
2024/01/31 05:47:47;;;;;;;23.52;2.63;;;;;;;-144.74;100.00;63161.41;5030612;28;20067;-74
2024/01/31 05:50:12;;;;;;;15.30;1.92;;;;;;;-144.74;100.00;63161.41;5030212;28;20030;-73
2024/01/31 05:52:38;;;;;;;26.25;2.78;;;;;;;-144.74;100.00;63161.41;5030189;28;20025;-73
2024/01/31 05:55:04;;;;;;;18.98;2.75;;;;;;;-144.74;100.00;63161.41;5014222;28;20037;-73
2024/01/31 05:57:30;;;;;;;25.00;3.63;;;;;;;-144.74;100.00;63161.41;5014051;28;20021;-72
2024/01/31 05:59:55;;;;;;;14.55;3.13;;;;;;;-144.74;100.00;63161.41;5013803;28;20034;-72
2024/01/31 06:02:21;;;;;;;22.73;2.95;;;;;;;-144.74;100.00;63161.41;5014015;28;20025;-73
2024/01/31 06:04:46;;;;;;;14.02;2.72;;;;;;;-144.74;100.00;63161.41;5013430;28;20113;-73
2024/01/31 06:07:12;;;;;;;20.67;2.58;;;;;;;-144.74;100.00;63161.41;5014077;28;20032;-73
2024/01/31 06:09:38;;;;;;;28.38;3.50;;;;;;;-144.74;100.00;63161.41;5013039;28;20052;-73
2024/01/31 06:12:05;;;;;;;15.27;2.88;;;;;;;-144.74;100.00;63161.41;5028306;28;20071;-73
2024/01/31 06:14:31;;;;;;;15.82;2.40;;;;;;;-144.74;100.00;63161.41;5018254;28;20037;-73
2024/01/31 06:16:57;;;;;;;25.25;3.13;;;;;;;-144.74;100.00;63161.41;5013746;28;20029;-73
2024/01/31 06:19:23;;;;;;;14.85;2.42;;;;;;;-144.74;100.00;63161.41;5015474;28;20085;-73
2024/01/31 06:21:48;;;;;;;17.25;2.72;;;;;;;-144.74;100.00;63161.41;5017814;28;20029;-72
2024/01/31 06:24:13;;;;;;;15.45;3.10;;;;;;;-144.74;100.00;63161.41;5030394;28;20021;-73
2024/01/31 06:26:40;;;;;;;16.52;2.25;;;;;;;-144.74;100.00;63161.41;5013446;28;20029;-72
2024/01/31 06:29:05;;;;;;;13.50;2.90;;;;;;;-144.74;100.00;63161.41;5013541;28;20053;-73
2024/01/31 06:31:35;;;;;;;31.27;2.60;;;;;;;-144.74;100.00;63161.41;5030704;28;20121;-73
2024/01/31 06:34:01;;;;;;;19.67;3.42;;;;;;;-144.74;100.00;63161.41;5013826;28;20127;-72
2024/01/31 06:36:26;;;;;;;23.40;3.03;;;;;;;-144.74;100.00;63161.41;5012676;28;20068;-72
2024/01/31 06:38:52;;;;;;;26.58;3.03;;;;;;;-144.74;100.00;63161.41;5018856;28;20057;-73
2024/01/31 06:41:17;;;;;;;17.10;2.63;;;;;;;-144.74;100.00;63161.41;5012994;28;20037;-73
2024/01/31 06:43:43;;;;;;;23.58;3.67;;;;;;;-144.74;100.00;63161.41;5013448;28;20480;-72
2024/01/31 06:46:08;;;;;;;29.67;3.05;;;;;;;-144.74;100.00;63161.41;5013166;28;20065;-72
2024/01/31 06:48:34;;;;;;;27.95;2.80;;;;;;;-144.74;100.00;63161.41;5017534;28;20028;-72
2024/01/31 06:50:59;;;;;;;19.77;2.53;;;;;;;-144.74;100.00;63161.41;5018259;28;20482;-75
2024/01/31 06:53:25;;;;;;;30.83;4.07;;;;;;;-144.74;100.00;63161.41;5012253;28;20026;-76
2024/01/31 06:55:51;;;;;;;15.02;2.33;;;;;;;-144.74;100.00;63161.41;5018304;28;20037;-75
2024/01/31 06:58:16;;;;;;;25.77;3.08;;;;;;;-144.74;100.00;63161.41;5017165;28;20026;-75
2024/01/31 07:00:42;;;;;;;22.00;3.13;;;;;;;-144.74;100.00;63161.41;5017169;28;20037;-75
2024/01/31 07:03:08;;;;;;;19.00;4.15;;;;;;;-144.74;100.00;63161.41;5012895;28;20031;-75
2024/01/31 07:05:33;;;;;;;17.45;2.38;;;;;;;-144.74;100.00;63161.41;5002458;28;20034;-76
2024/01/31 07:07:59;;;;;;;32.10;2.70;;;;;;;-144.74;100.00;63161.41;5004276;28;20053;-77
2024/01/31 07:10:24;;;;;;;17.00;2.72;;;;;;;-144.74;100.00;63161.41;5005366;28;20070;-75
2024/01/31 07:12:52;;;;;;;31.30;3.55;;;;;;;-144.74;100.00;63161.41;5009587;28;20036;-75
2024/01/31 07:15:19;;;;;;;21.42;2.88;;;;;;;-144.74;100.00;63161.41;5005263;28;20041;-75
2024/01/31 07:17:45;;;;;;;21.67;2.30;;;;;;;-144.74;100.00;63161.41;5002356;28;20033;-75
2024/01/31 07:20:10;;;;;;;25.80;3.00;;;;;;;-144.74;100.00;63161.41;4997977;28;20092;-75
2024/01/31 07:22:36;;;;;;;17.35;3.05;;;;;;;-144.74;100.00;63161.41;5004764;28;20464;-75
2024/01/31 07:25:01;;;;;;;21.42;3.05;;;;;;;-144.74;100.00;63161.41;5004770;28;20033;-75
2024/01/31 07:27:27;;;;;;;32.35;2.90;;;;;;;-144.74;100.00;63161.41;5009944;28;20029;-75
2024/01/31 07:29:52;;;;;;;15.50;2.83;;;;;;;-144.74;100.00;63161.41;5013885;28;20044;-77
2024/01/31 07:32:17;;;;;;;16.92;3.10;;;;;;;-144.74;100.00;63161.41;5009206;28;20019;-75
2024/01/31 07:34:43;;;;;;;17.02;2.67;;;;;;;-144.74;100.00;63161.41;5016656;28;20434;-75
2024/01/31 07:37:10;;;;;;;32.55;3.92;;;;;;;-144.74;100.00;63161.41;5004322;28;20049;-75
2024/01/31 07:39:35;;;;;;;22.05;2.92;;;;;;;-144.74;100.00;63161.41;5012090;28;20045;-75
2024/01/31 07:42:01;;;;;;;12.15;2.20;;;;;;;-144.74;100.00;63161.41;5016897;28;20030;-75
2024/01/31 07:44:26;;;;;;;24.90;4.07;;;;;;;-144.74;100.00;63161.41;5012250;28;20097;-77
2024/01/31 07:46:51;;;;;;;32.10;3.63;;;;;;;-144.74;100.00;63161.41;5012730;28;20028;-75
2024/01/31 07:49:17;;;;;;;33.30;3.63;;;;;;;-144.74;100.00;63161.41;5011712;28;20025;-76
2024/01/31 07:51:44;;;;;;;24.30;2.60;;;;;;;-144.74;100.00;63161.41;5009878;28;20021;-75
2024/01/31 07:54:09;;;;;;;28.35;4.30;;;;;;;-144.74;100.00;63161.41;5012531;28;20033;-75
2024/01/31 07:56:35;;;;;;;21.63;2.90;;;;;;;-144.74;100.00;63161.41;5011818;28;20041;-75
2024/01/31 07:59:00;;;;;;;27.58;3.22;;;;;;;-144.74;100.00;63161.41;5011416;28;20025;-75
2024/01/31 08:01:26;;;;;;;21.05;2.72;;;;;;;-144.74;100.00;63161.41;5009362;28;20045;-76
2024/01/31 08:03:51;;;;;;;22.90;4.32;;;;;;;-144.74;100.00;63161.41;5012766;28;20037;-76
2024/01/31 08:06:16;;;;;;;19.17;2.70;;;;;;;-144.74;100.00;63161.41;5011310;28;20034;-76
2024/01/31 08:08:45;;;;;;;26.00;3.17;;;;;;;-144.74;100.00;63161.41;5012412;28;20040;-76
2024/01/31 08:11:11;;;;;;;18.67;2.85;;;;;;;-144.74;100.00;63161.41;5011856;28;20033;-76
2024/01/31 08:13:39;;;;;;;17.67;2.95;;;;;;;-144.74;100.00;63161.41;5012049;28;20369;-76
2024/01/31 08:16:05;;;;;;;19.73;2.33;;;;;;;-144.74;100.00;63161.41;5012646;28;20404;-76
2024/01/31 08:18:31;;;;;;;25.30;3.75;;;;;;;-144.74;100.00;63161.41;5022154;28;20114;-75
2024/01/31 08:20:56;;;;;;;22.83;2.63;;;;;;;-144.74;100.00;63161.41;5021865;28;20076;-76
2024/01/31 08:23:21;;;;;;;18.83;3.45;;;;;;;-144.74;100.00;63161.41;5004535;28;20029;-76
2024/01/31 08:25:47;;;;;;;21.17;3.60;;;;;;;-144.74;100.00;63161.41;5009867;28;20034;-75
2024/01/31 08:28:12;;;;;;;20.25;2.58;;;;;;;-144.74;100.00;63161.41;5012846;28;20029;-75
2024/01/31 08:30:38;;;;;;;31.63;4.63;;;;;;;-144.74;100.00;63161.41;5011870;28;20037;-76
2024/01/31 08:33:03;;;;;;;24.23;3.42;;;;;;;-144.74;100.00;63161.41;5011897;28;20118;-75
2024/01/31 08:35:29;;;;;;;20.13;4.00;;;;;;;-144.74;100.00;63161.41;5007398;28;20041;-75
2024/01/31 08:37:56;;;;;;;27.23;4.47;;;;;;;-144.74;100.00;63161.41;5012294;28;20029;-75
2024/01/31 08:40:21;;;;;;;22.67;2.25;;;;;;;-144.74;100.00;63161.41;5010996;28;20060;-75
2024/01/31 08:42:47;;;;;;;26.73;3.15;;;;;;;-144.74;100.00;63161.41;5007455;28;20021;-75
2024/01/31 08:45:13;;;;;;;23.27;2.90;;;;;;;-144.74;100.00;63161.41;5013137;28;20117;-75
2024/01/31 08:47:39;;;;;;;19.90;3.08;;;;;;;-144.74;100.00;63161.41;5011183;28;20032;-76
2024/01/31 08:50:05;;;;;;;21.48;4.03;;;;;;;-144.74;100.00;63161.41;5028515;28;20467;-77
2024/01/31 08:52:30;;;;;;;28.88;3.67;;;;;;;-144.74;100.00;63161.41;5023674;28;20400;-78
2024/01/31 08:54:55;;;;;;;19.55;2.92;;;;;;;-144.74;100.00;63161.41;5021114;28;20481;-77
2024/01/31 08:57:21;;;;;;;33.13;4.35;;;;;;;-144.74;100.00;63161.41;5014631;28;20120;-78
2024/01/31 08:59:46;;;;;;;18.35;3.08;;;;;;;-144.74;100.00;63161.41;5018149;28;20037;-77
2024/01/31 09:02:12;;;;;;;27.02;4.25;;;;;;;-144.74;100.00;63161.41;5006773;28;20452;-77
2024/01/31 09:04:37;;;;;;;20.50;2.88;;;;;;;-144.74;100.00;63161.41;5015229;28;20030;-75
2024/01/31 09:07:03;;;;;;;23.15;2.47;;;;;;;-144.74;100.00;63161.41;5010200;28;20075;-77
2024/01/31 09:09:39;;;;;;;23.10;4.28;;;;;;;-144.74;100.00;63161.41;5011198;28;20048;-77
2024/01/31 09:12:06;;;;;;;25.83;2.50;;;;;;;-144.74;100.00;63161.41;5012104;28;20033;-75
2024/01/31 09:14:33;;;;;;;23.15;4.45;;;;;;;-144.74;100.00;63161.41;5004188;28;20031;-75
2024/01/31 09:16:58;;;;;;;21.45;2.50;;;;;;;-144.74;100.00;63161.41;5010353;28;20447;-75
2024/01/31 09:19:24;;;;;;;23.27;2.80;;;;;;;-144.74;100.00;63161.41;5010193;28;20022;-75
2024/01/31 09:21:50;;;;;;;26.05;2.95;;;;;;;-144.74;100.00;63161.41;5009879;28;20029;-75
2024/01/31 09:24:15;;;;;;;25.77;4.32;;;;;;;-144.74;100.00;63161.41;5010572;28;20029;-75
2024/01/31 09:26:41;;;;;;;15.70;2.63;;;;;;;-144.74;100.00;63161.41;5027457;28;20063;-75
2024/01/31 09:29:06;;;;;;;21.55;3.40;;;;;;;-144.74;100.00;63161.41;5010177;28;20096;-76
2024/01/31 09:31:32;;;;;;;22.35;2.80;;;;;;;-144.74;100.00;63161.41;5009675;28;20135;-76
2024/01/31 09:33:57;;;;;;;23.27;3.00;;;;;;;-144.74;100.00;63161.41;5010482;28;20037;-75
2024/01/31 09:36:23;;;;;;;25.48;3.50;;;;;;;-144.74;100.00;63161.41;5006847;28;20046;-75
2024/01/31 09:38:48;;;;;;;22.77;2.78;;;;;;;-144.74;100.00;63161.41;4985289;28;20033;-76
2024/01/31 09:41:15;;;;;;;27.45;3.58;;;;;;;-144.74;100.00;63161.41;5013065;28;20029;-75
2024/01/31 09:43:40;;;;;;;27.73;2.72;;;;;;;-144.74;100.00;63161.41;5011794;28;20049;-76
2024/01/31 09:46:07;;;;;;;21.33;3.42;;;;;;;-144.74;100.00;63161.41;5014368;28;20036;-76
2024/01/31 09:48:33;;;;;;;19.77;2.65;;;;;;;-144.74;100.00;63161.41;5003411;28;20117;-76
2024/01/31 09:50:59;;;;;;;17.17;2.15;;;;;;;-144.74;100.00;63161.41;5012469;28;20068;-77
2024/01/31 09:53:25;;;;;;;24.45;2.53;;;;;;;-144.74;100.00;63161.41;5016291;28;20033;-77
2024/01/31 09:55:55;;;;;;;21.08;3.55;;;;;;;-144.74;100.00;63161.41;5006883;28;20060;-76
2024/01/31 09:58:21;;;;;;;14.40;2.45;;;;;;;-144.74;100.00;63161.41;5010258;28;20426;-77
2024/01/31 10:00:47;;;;;;;22.45;2.90;;;;;;;-144.74;100.00;63161.41;5003985;28;20080;-76
2024/01/31 10:03:12;;;;;;;26.23;2.88;;;;;;;-144.74;100.00;63161.41;5009724;28;20029;-76
2024/01/31 10:05:38;;;;;;;19.17;3.50;;;;;;;-144.74;100.00;63161.41;5005998;28;20048;-76
2024/01/31 10:08:06;;;;;;;16.33;3.65;;;;;;;-144.74;100.00;63161.41;5026875;28;20025;-76
2024/01/31 10:10:32;;;;;;;18.33;3.08;;;;;;;-144.74;100.00;63161.41;5006208;28;20033;-76
2024/01/31 10:12:57;;;;;;;18.55;3.05;;;;;;;-144.74;100.00;63161.41;5006086;28;20029;-76
2024/01/31 10:15:22;;;;;;;24.20;3.70;;;;;;;-144.74;100.00;63161.41;5009294;28;20069;-76
2024/01/31 10:17:48;;;;;;;16.52;2.40;;;;;;;-144.74;100.00;63161.41;5009533;28;20021;-76
2024/01/31 10:20:13;;;;;;;16.15;2.47;;;;;;;-144.74;100.00;63161.41;5026301;28;20447;-76
2024/01/31 10:22:39;;;;;;;20.13;2.80;;;;;;;-144.74;100.00;63161.41;5003088;28;20056;-76
2024/01/31 10:25:05;;;;;;;22.98;3.47;;;;;;;-144.74;100.00;63161.41;5005330;28;20029;-77
2024/01/31 10:27:35;;;;;;;24.13;3.42;;;;;;;-144.74;100.00;63161.41;5006197;28;20022;-76
2024/01/31 10:30:06;;;;;;;19.33;3.00;;;;;;;-144.74;100.00;63161.41;5005191;28;20038;-76
2024/01/31 10:32:33;;;;;;;24.05;3.17;;;;;;;-144.74;100.00;63161.41;5009189;28;20028;-77
2024/01/31 10:35:01;;;;;;;19.15;2.63;;;;;;;-144.74;100.00;63161.41;5006164;28;20140;-76
2024/01/31 10:37:27;;;;;;;23.98;3.53;;;;;;;-144.74;100.00;63161.41;5009282;28;20032;-76
2024/01/31 10:39:54;;;;;;;20.45;3.00;;;;;;;-144.74;100.00;63161.41;5004972;28;20076;-75
2024/01/31 10:42:21;;;;;;;14.50;2.67;;;;;;;-144.74;100.00;63161.41;5008688;28;20021;-76
2024/01/31 10:44:48;;;;;;;18.27;2.75;;;;;;;-144.74;100.00;63161.41;5002822;28;20030;-76
2024/01/31 10:47:13;;;;;;;19.88;3.15;;;;;;;-144.74;100.00;63161.41;5006736;28;20029;-75
2024/01/31 10:49:39;;;;;;;23.38;2.65;;;;;;;-144.74;100.00;63161.41;5008557;28;20040;-76
2024/01/31 10:52:09;;;;;;;17.33;2.50;;;;;;;-144.74;100.00;63161.41;5009849;28;20506;-75
2024/01/31 10:54:41;;;;;;;23.02;2.75;;;;;;;-144.74;100.00;63161.41;5001209;28;20034;-77
2024/01/31 10:57:07;;;;;;;18.00;2.80;;;;;;;-144.74;100.00;63161.41;5003865;28;20025;-77